createdAt,value
2024-05-09T00:00:41.356Z,11.30
2024-05-09T00:03:10.750Z,11.50
2024-05-09T00:05:42.797Z,8.90
2024-05-09T00:08:10.612Z,7.82
2024-05-09T00:10:39.383Z,10.25
2024-05-09T00:13:08.075Z,9.77
2024-05-09T00:15:36.263Z,10.70
2024-05-09T00:18:04.561Z,9.65
2024-05-09T00:20:38.518Z,9.90
2024-05-09T00:23:12.181Z,9.65
2024-05-09T00:25:40.181Z,8.63
2024-05-09T00:28:07.281Z,10.02
2024-05-09T00:30:36.628Z,9.68
2024-05-09T00:33:06.034Z,8.52
2024-05-09T00:35:34.255Z,8.63
2024-05-09T00:38:01.565Z,10.27
2024-05-09T00:40:43.362Z,9.55
2024-05-09T00:43:11.628Z,9.80
2024-05-09T00:45:39.386Z,9.45
2024-05-09T00:48:08.847Z,10.77
2024-05-09T00:50:38.904Z,9.10
2024-05-09T00:53:06.802Z,9.80
2024-05-09T00:55:37.835Z,9.35
2024-05-09T00:58:05.450Z,10.27
2024-05-09T01:00:38.852Z,8.95
2024-05-09T01:03:08.822Z,9.00
2024-05-09T01:05:39.209Z,9.32
2024-05-09T01:08:07.360Z,8.00
2024-05-09T01:10:37.631Z,8.77
2024-05-09T01:13:05.409Z,9.20
2024-05-09T01:15:33.118Z,7.13
2024-05-09T01:18:01.279Z,9.30
2024-05-09T01:20:39.151Z,8.90
2024-05-09T01:23:14.493Z,10.00
2024-05-09T01:25:43.331Z,8.02
2024-05-09T01:28:11.964Z,8.70
2024-05-09T01:30:39.648Z,8.90
2024-05-09T01:33:08.777Z,10.43
2024-05-09T01:35:42.288Z,7.20
2024-05-09T01:38:14.040Z,10.82
2024-05-09T01:40:41.535Z,7.27
2024-05-09T01:43:10.090Z,7.32
2024-05-09T01:45:38.297Z,8.27
2024-05-09T01:48:06.380Z,7.03
2024-05-09T01:50:38.873Z,6.95
2024-05-09T01:53:09.377Z,6.63
2024-05-09T01:55:39.483Z,8.20
2024-05-09T01:58:07.448Z,8.88
2024-05-09T02:00:39.845Z,8.07
2024-05-09T02:03:10.460Z,8.00
2024-05-09T02:05:39.120Z,9.10
2024-05-09T02:08:07.074Z,8.43
2024-05-09T02:10:34.237Z,7.07
2024-05-09T02:13:04.271Z,7.88
2024-05-09T02:15:31.430Z,8.30
2024-05-09T02:17:58.683Z,8.80
2024-05-09T02:20:33.416Z,6.90
2024-05-09T02:23:05.213Z,6.22
2024-05-09T02:25:32.912Z,7.13
2024-05-09T02:28:00.215Z,6.38
2024-05-09T02:30:38.765Z,7.50
2024-05-09T02:33:09.874Z,8.88
2024-05-09T02:35:38.696Z,7.93
2024-05-09T02:38:06.802Z,7.45
2024-05-09T02:40:37.873Z,7.40
2024-05-09T02:43:06.946Z,8.83
2024-05-09T02:45:36.903Z,7.55
2024-05-09T02:48:04.457Z,7.68
2024-05-09T02:50:37.872Z,7.40
2024-05-09T02:53:07.217Z,9.40
2024-05-09T02:55:34.839Z,9.20
2024-05-09T02:58:02.188Z,7.47
2024-05-09T03:00:37.224Z,9.90
2024-05-09T03:03:12.744Z,7.07
2024-05-09T03:05:42.364Z,7.88
2024-05-09T03:08:09.836Z,7.43
2024-05-09T03:10:38.781Z,7.13
2024-05-09T03:13:07.043Z,8.95
2024-05-09T03:15:34.194Z,8.10
2024-05-09T03:18:01.713Z,8.43
2024-05-09T03:20:34.898Z,8.73
2024-05-09T03:23:03.728Z,6.03
2024-05-09T03:25:31.424Z,7.53
2024-05-09T03:27:58.571Z,7.93
2024-05-09T03:30:38.657Z,6.55
2024-05-09T03:33:10.206Z,7.37
2024-05-09T03:35:40.361Z,8.45
2024-05-09T03:38:07.482Z,8.43
2024-05-09T03:40:34.684Z,8.50
2024-05-09T03:43:01.859Z,9.07
2024-05-09T03:45:29.264Z,7.77
2024-05-09T03:47:56.884Z,8.82
2024-05-09T03:50:30.150Z,9.60
2024-05-09T03:53:04.134Z,8.20
2024-05-09T03:55:31.455Z,7.07
2024-05-09T03:57:59.118Z,8.17
2024-05-09T04:00:34.990Z,8.43
2024-05-09T04:03:07.772Z,9.90
2024-05-09T04:05:38.320Z,8.30
2024-05-09T04:08:08.821Z,9.30
2024-05-09T04:10:36.110Z,10.57
2024-05-09T04:13:04.102Z,8.85
2024-05-09T04:15:31.882Z,10.15
2024-05-09T04:17:59.613Z,9.95
2024-05-09T04:22:57.102Z,9.77
2024-05-09T04:25:26.966Z,8.90
2024-05-09T04:27:56.001Z,7.53
2024-05-09T04:30:34.269Z,7.40
2024-05-09T04:33:07.104Z,9.07
2024-05-09T04:35:35.770Z,9.17
2024-05-09T04:38:03.426Z,7.88
2024-05-09T04:40:36.103Z,7.18
2024-05-09T04:43:04.654Z,9.02
2024-05-09T04:45:32.014Z,10.35
2024-05-09T04:47:59.758Z,9.93
2024-05-09T04:50:35.566Z,9.05
2024-05-09T04:53:06.492Z,9.02
2024-05-09T04:55:37.015Z,8.50
2024-05-09T04:58:05.797Z,7.40
2024-05-09T05:00:37.208Z,8.53
2024-05-09T05:03:07.591Z,7.38
2024-05-09T05:05:37.967Z,7.03
2024-05-09T05:08:05.749Z,9.27
2024-05-09T05:10:36.304Z,7.18
2024-05-09T05:13:18.013Z,7.43
2024-05-09T05:15:46.191Z,8.52
2024-05-09T05:18:14.939Z,8.13
2024-05-09T05:20:42.344Z,8.88
2024-05-09T05:23:11.482Z,8.48
2024-05-09T05:25:38.668Z,7.53
2024-05-09T05:28:08.962Z,8.02
2024-05-09T05:30:37.700Z,8.15
2024-05-09T05:33:05.476Z,7.22
2024-05-09T05:35:33.173Z,6.53
2024-05-09T05:38:00.560Z,8.03
2024-05-09T05:40:35.404Z,7.45
2024-05-09T05:43:05.190Z,7.10
2024-05-09T05:45:35.135Z,7.30
2024-05-09T05:48:03.757Z,7.43
2024-05-09T05:50:35.930Z,7.63
2024-05-09T05:53:05.433Z,6.10
2024-05-09T05:55:32.727Z,7.65
2024-05-09T05:58:00.893Z,7.32
2024-05-09T06:00:36.978Z,6.07
2024-05-09T06:03:10.495Z,9.83
2024-05-09T06:05:46.927Z,7.45
2024-05-09T06:08:14.597Z,5.63
2024-05-09T06:10:42.556Z,6.55
2024-05-09T06:13:14.015Z,6.20
2024-05-09T06:15:41.969Z,7.00
2024-05-09T06:18:12.749Z,6.38
2024-05-09T06:20:43.584Z,5.57
2024-05-09T06:23:12.240Z,6.57
2024-05-09T06:25:42.585Z,6.72
2024-05-09T06:28:14.668Z,6.97
2024-05-09T06:30:43.511Z,6.55
2024-05-09T06:33:15.590Z,6.35
2024-05-09T06:35:44.200Z,6.18
2024-05-09T06:38:12.089Z,6.10
2024-05-09T06:40:41.580Z,7.97
2024-05-09T06:43:11.251Z,6.53
2024-05-09T06:45:40.090Z,8.95
2024-05-09T06:48:09.057Z,6.10
2024-05-09T06:50:40.177Z,6.45
2024-05-09T06:53:08.308Z,6.57
2024-05-09T06:55:36.042Z,6.18
2024-05-09T06:58:22.273Z,6.70
2024-05-09T07:00:53.179Z,6.78
2024-05-09T07:03:20.690Z,6.03
2024-05-09T07:05:51.076Z,9.57
2024-05-09T07:08:18.945Z,8.00
2024-05-09T07:10:49.786Z,6.65
2024-05-09T07:13:17.272Z,5.78
2024-05-09T07:15:44.683Z,6.25
2024-05-09T07:18:12.882Z,5.63
2024-05-09T07:20:40.789Z,6.70
2024-05-09T07:23:12.024Z,7.05
2024-05-09T07:25:40.396Z,6.32
2024-05-09T07:28:11.430Z,10.27
2024-05-09T07:30:38.709Z,7.47
2024-05-09T07:33:06.287Z,5.22
2024-05-09T07:35:33.876Z,6.03
2024-05-09T07:38:01.393Z,6.90
2024-05-09T07:40:35.990Z,7.28
2024-05-09T07:43:04.456Z,6.83
2024-05-09T07:45:48.139Z,6.35
2024-05-09T07:53:38.534Z,8.05
2024-05-09T07:56:13.226Z,5.40
2024-05-09T07:58:42.965Z,6.07
2024-05-09T08:01:10.265Z,5.85
2024-05-09T08:03:37.990Z,5.85
2024-05-09T08:06:05.651Z,6.93
2024-05-09T08:08:32.964Z,6.87
2024-05-09T08:11:00.266Z,7.13
2024-05-09T08:13:30.132Z,6.43
2024-05-09T08:15:57.542Z,6.72
2024-05-09T08:18:25.026Z,8.90
2024-05-09T08:20:52.504Z,6.23
2024-05-09T08:23:19.885Z,5.82
2024-05-09T08:25:48.136Z,6.50
2024-05-09T08:28:15.876Z,6.15
2024-05-09T08:30:46.527Z,8.27
2024-05-09T08:33:13.972Z,7.93
2024-05-09T08:35:41.694Z,6.28
2024-05-09T08:38:09.336Z,6.65
2024-05-09T08:40:37.996Z,8.68
2024-05-09T08:43:07.579Z,6.78
2024-05-09T08:45:36.077Z,6.27
2024-05-09T08:48:08.024Z,5.97
2024-05-09T08:50:39.274Z,9.57
2024-05-09T08:53:07.778Z,7.43
2024-05-09T08:55:40.073Z,7.63
2024-05-09T08:58:10.938Z,8.27
2024-05-09T09:00:39.037Z,6.32
2024-05-09T09:03:11.635Z,6.03
2024-05-09T09:05:40.892Z,7.38
2024-05-09T09:08:08.941Z,6.53
2024-05-09T09:10:39.945Z,8.60
2024-05-09T09:13:09.922Z,8.20
2024-05-09T09:15:46.704Z,8.88
2024-05-09T09:18:19.391Z,6.97
2024-05-09T09:20:46.879Z,8.63
2024-05-09T09:23:23.300Z,7.20
2024-05-09T09:25:50.906Z,7.75
2024-05-09T09:28:18.350Z,6.65
2024-05-09T09:30:46.000Z,7.95
2024-05-09T09:33:13.799Z,6.72
2024-05-09T09:35:45.095Z,6.87
2024-05-09T09:38:16.842Z,6.75
2024-05-09T09:40:49.691Z,7.97
2024-05-09T09:43:19.278Z,7.40
2024-05-09T09:45:47.120Z,6.80
2024-05-09T09:48:15.049Z,7.53
2024-05-09T09:50:45.583Z,7.88
2024-05-09T09:53:14.139Z,7.45
2024-05-09T09:55:41.903Z,7.85
2024-05-09T09:58:12.174Z,7.40
2024-05-09T10:00:42.009Z,6.40
2024-05-09T10:03:09.893Z,7.20
2024-05-09T10:05:37.943Z,7.43
2024-05-09T10:08:10.842Z,9.13
2024-05-09T10:10:38.437Z,7.60
2024-05-09T10:13:05.943Z,7.53
2024-05-09T10:15:43.120Z,6.95
2024-05-09T10:18:10.573Z,8.55
2024-05-09T10:20:41.754Z,11.60
2024-05-09T10:23:28.001Z,10.57
2024-05-09T10:25:58.760Z,6.90
2024-05-09T10:28:26.389Z,6.55
2024-05-09T10:31:03.725Z,6.95
2024-05-09T10:33:41.886Z,8.98
2024-05-09T10:36:12.632Z,7.05
2024-05-09T10:38:43.368Z,7.30
2024-05-09T10:41:10.995Z,6.43
2024-05-09T10:43:39.268Z,7.05
2024-05-09T10:46:08.532Z,8.70
2024-05-09T10:48:36.907Z,8.98
2024-05-09T10:51:04.746Z,7.27
2024-05-09T10:53:40.000Z,8.23
2024-05-09T10:56:10.968Z,9.40
2024-05-09T10:58:38.897Z,7.47
2024-05-09T11:01:07.306Z,7.03
2024-05-09T11:03:36.187Z,6.67
2024-05-09T11:06:04.465Z,9.77
2024-05-09T11:08:32.994Z,7.40
2024-05-09T11:11:03.288Z,7.53
2024-05-09T11:13:33.847Z,6.80
2024-05-09T11:16:01.477Z,6.63
2024-05-09T11:18:33.449Z,8.38
2024-05-09T11:21:03.632Z,7.22
2024-05-09T11:23:45.600Z,6.78
2024-05-09T11:26:15.476Z,6.05
2024-05-09T11:28:46.684Z,5.10
2024-05-09T11:31:13.998Z,7.05
2024-05-09T11:33:45.810Z,6.00
2024-05-09T11:36:13.343Z,6.05
2024-05-09T11:38:40.624Z,6.15
2024-05-09T11:41:07.850Z,4.90
2024-05-09T11:43:35.194Z,6.25
2024-05-09T11:46:05.532Z,4.70
2024-05-09T11:48:33.075Z,5.25
2024-05-09T11:51:00.638Z,4.55
2024-05-09T11:53:28.156Z,5.63
2024-05-09T11:55:55.477Z,5.30
2024-05-09T11:58:23.757Z,5.20
2024-05-09T12:00:51.463Z,5.85
2024-05-09T12:03:21.715Z,5.93
2024-05-09T12:05:49.291Z,6.13
2024-05-09T12:08:16.863Z,5.07
2024-05-09T12:10:44.244Z,4.68
2024-05-09T12:13:11.601Z,5.40
2024-05-09T12:15:39.325Z,6.80
2024-05-09T12:18:07.319Z,7.37
2024-05-09T12:20:39.881Z,5.22
2024-05-09T12:23:09.978Z,6.30
2024-05-09T12:25:38.222Z,5.60
2024-05-09T12:28:08.802Z,7.22
2024-05-09T12:30:48.256Z,6.43
2024-05-09T12:33:30.437Z,6.30
2024-05-09T12:36:00.584Z,5.30
2024-05-09T12:38:27.906Z,6.40
2024-05-09T12:40:55.236Z,6.03
2024-05-09T12:43:22.784Z,6.43
2024-05-09T12:45:50.133Z,5.85
2024-05-09T12:48:17.549Z,6.57
2024-05-09T12:50:45.016Z,7.78
2024-05-09T12:53:15.003Z,6.85
2024-05-09T12:55:49.011Z,7.07
2024-05-09T12:58:24.061Z,5.75
2024-05-09T13:00:52.077Z,5.90
2024-05-09T13:03:21.067Z,5.57
2024-05-09T13:05:49.415Z,7.65
2024-05-09T13:08:20.021Z,5.80
2024-05-09T13:11:12.095Z,5.65
2024-05-09T13:13:39.431Z,5.47
2024-05-09T13:16:07.386Z,5.72
2024-05-09T13:18:36.831Z,5.15
2024-05-09T13:21:04.809Z,5.00
2024-05-09T13:23:34.586Z,6.07
2024-05-09T13:26:01.695Z,7.38
2024-05-09T13:28:29.309Z,5.80
2024-05-09T13:30:56.517Z,6.45
2024-05-09T13:33:23.804Z,4.73
2024-05-09T13:35:51.394Z,6.93
2024-05-09T13:38:19.420Z,6.50
2024-05-09T13:40:50.548Z,5.70
2024-05-09T13:43:18.388Z,5.40
2024-05-09T13:45:46.022Z,5.90
2024-05-09T13:48:13.493Z,6.93
2024-05-09T13:50:40.853Z,7.05
2024-05-09T13:53:08.873Z,5.97
2024-05-09T13:55:37.656Z,5.35
2024-05-09T13:58:10.540Z,6.30
2024-05-09T14:00:45.212Z,5.00
2024-05-09T14:03:17.617Z,5.38
2024-05-09T14:05:46.986Z,5.18
2024-05-09T14:08:15.891Z,7.47
2024-05-09T14:10:46.724Z,6.17
2024-05-09T14:13:17.288Z,5.70
2024-05-09T14:15:45.714Z,5.43
2024-05-09T14:18:14.435Z,5.97
2024-05-09T14:20:42.930Z,5.80
2024-05-09T14:23:10.530Z,6.57
2024-05-09T14:25:42.598Z,8.13
2024-05-09T14:28:11.609Z,5.55
2024-05-09T14:30:42.803Z,6.78
2024-05-09T14:33:10.384Z,5.43
2024-05-09T14:35:38.907Z,5.90
2024-05-09T14:38:07.716Z,5.72
2024-05-09T14:40:41.423Z,6.22
2024-05-09T14:43:12.405Z,6.47
2024-05-09T14:45:43.808Z,6.38
2024-05-09T14:48:12.381Z,6.40
2024-05-09T14:50:40.818Z,6.50
2024-05-09T14:53:09.927Z,5.38
2024-05-09T14:55:39.570Z,6.05
2024-05-09T14:58:09.221Z,5.68
2024-05-09T15:00:38.579Z,5.50
2024-05-09T15:03:10.380Z,6.13
2024-05-09T15:05:38.021Z,5.35
2024-05-09T15:08:06.147Z,5.68
2024-05-09T15:10:35.906Z,5.53
2024-05-09T15:13:04.675Z,4.73
2024-05-09T15:15:32.104Z,7.35
2024-05-09T15:17:59.954Z,5.70
2024-05-09T15:20:34.863Z,5.60
2024-05-09T15:23:05.533Z,5.70
2024-05-09T15:25:34.016Z,6.13
2024-05-09T15:28:01.549Z,4.90
2024-05-09T15:30:32.395Z,5.25
2024-05-09T15:33:03.831Z,5.50
2024-05-09T15:35:34.628Z,5.72
2024-05-09T15:38:03.346Z,5.60
2024-05-09T15:40:37.907Z,5.50
2024-05-09T15:43:08.674Z,6.18
2024-05-09T15:45:37.655Z,11.10
2024-05-09T15:48:06.399Z,4.93
2024-05-09T15:50:40.074Z,4.80
2024-05-09T15:53:11.142Z,5.35
2024-05-09T15:55:39.011Z,4.90
2024-05-09T15:58:07.569Z,6.60
2024-05-09T16:00:40.312Z,4.78
2024-05-09T16:03:10.275Z,4.80
2024-05-09T16:05:41.478Z,5.28
2024-05-09T16:08:09.757Z,5.63
2024-05-09T16:10:43.417Z,6.30
2024-05-09T16:13:12.203Z,5.30
2024-05-09T16:15:39.700Z,5.87
2024-05-09T16:18:07.722Z,4.93
2024-05-09T16:20:39.977Z,7.90
2024-05-09T16:23:12.945Z,5.78
2024-05-09T16:25:41.935Z,4.68
2024-05-09T16:28:10.803Z,5.27
2024-05-09T16:30:38.975Z,5.57
2024-05-09T16:33:06.705Z,6.85
2024-05-09T16:35:35.161Z,5.57
2024-05-09T16:38:03.002Z,7.10
2024-05-09T16:40:38.715Z,4.80
2024-05-09T16:43:08.949Z,8.20
2024-05-09T16:45:36.897Z,5.40
2024-05-09T16:48:04.769Z,4.80
2024-05-09T16:50:34.503Z,4.88
2024-05-09T16:53:03.707Z,6.73
2024-05-09T16:55:34.385Z,4.68
2024-05-09T16:58:02.356Z,5.10
2024-05-09T17:00:39.344Z,5.50
2024-05-09T17:03:11.440Z,5.63
2024-05-09T17:05:39.735Z,6.10
2024-05-09T17:08:07.558Z,5.75
2024-05-09T17:10:37.627Z,5.75
2024-05-09T17:13:07.136Z,5.45
2024-05-09T17:15:36.062Z,4.90
2024-05-09T17:18:05.343Z,5.40
2024-05-09T17:20:36.294Z,5.95
2024-05-09T17:23:13.455Z,5.05
2024-05-09T17:25:44.122Z,6.07
2024-05-09T17:28:11.672Z,5.18
2024-05-09T17:30:40.934Z,5.80
2024-05-09T17:33:10.413Z,6.22
2024-05-09T17:35:38.581Z,6.78
2024-05-09T17:38:06.000Z,5.45
2024-05-09T17:40:36.212Z,5.22
2024-05-09T17:43:09.843Z,5.83
2024-05-09T17:45:39.197Z,5.82
2024-05-09T17:48:08.638Z,5.80
2024-05-09T17:50:37.614Z,5.45
2024-05-09T17:53:05.979Z,6.25
2024-05-09T17:55:33.507Z,7.00
2024-05-09T17:58:01.126Z,4.90
2024-05-09T18:00:38.250Z,5.80
2024-05-09T18:03:09.031Z,6.68
2024-05-09T18:05:37.746Z,5.20
2024-05-09T18:08:05.822Z,6.43
2024-05-09T18:10:37.218Z,4.82
2024-05-09T18:13:07.204Z,5.70
2024-05-09T18:15:38.680Z,5.40
2024-05-09T18:18:06.842Z,5.95
2024-05-09T18:20:43.182Z,6.10
2024-05-09T18:23:17.420Z,5.00
2024-05-09T18:25:46.874Z,7.00
2024-05-09T18:28:15.081Z,5.32
2024-05-09T18:30:45.195Z,6.13
2024-05-09T18:33:12.977Z,4.70
2024-05-09T18:35:41.329Z,5.28
2024-05-09T18:38:09.019Z,4.53
2024-05-09T18:40:38.412Z,5.28
2024-05-09T18:43:08.959Z,5.38
2024-05-09T18:45:37.850Z,6.00
2024-05-09T18:48:10.268Z,6.85
2024-05-09T18:50:40.307Z,6.32
2024-05-09T18:53:08.938Z,4.93
2024-05-09T18:55:37.411Z,5.32
2024-05-09T18:58:05.151Z,5.90
2024-05-09T19:00:36.500Z,6.30
2024-05-09T19:03:11.811Z,5.00
2024-05-09T19:05:43.176Z,5.82
2024-05-09T19:08:12.332Z,5.47
2024-05-09T19:10:41.275Z,6.77
2024-05-09T19:13:12.591Z,9.45
2024-05-09T19:15:42.867Z,7.65
2024-05-09T19:18:15.240Z,8.13
2024-05-09T19:20:43.342Z,7.00
2024-05-09T19:23:11.935Z,7.20
2024-05-09T19:25:39.301Z,6.38
2024-05-09T19:28:07.116Z,6.82
2024-05-09T19:30:39.922Z,6.57
2024-05-09T19:33:10.911Z,5.65
2024-05-09T19:35:43.731Z,7.17
2024-05-09T19:38:11.480Z,6.25
2024-05-09T19:40:39.217Z,5.90
2024-05-09T19:43:07.856Z,4.30
2024-05-09T19:45:36.353Z,6.15
2024-05-09T19:48:05.512Z,6.70
2024-05-09T19:50:41.178Z,6.15
2024-05-09T19:53:14.241Z,6.43
2024-05-09T19:55:42.271Z,5.50
2024-05-09T19:58:10.453Z,7.13
2024-05-09T20:00:40.912Z,6.53
2024-05-09T20:03:11.509Z,5.88
2024-05-09T20:05:40.589Z,5.80
2024-05-09T20:08:08.990Z,9.55
2024-05-09T20:10:39.659Z,7.35
2024-05-09T20:13:08.536Z,7.13
2024-05-09T20:15:37.849Z,6.03
2024-05-09T20:18:06.739Z,7.63
2024-05-09T20:20:39.827Z,7.28
2024-05-09T20:23:11.587Z,6.80
2024-05-09T20:25:42.207Z,7.17
2024-05-09T20:28:10.872Z,6.95
2024-05-09T20:30:38.720Z,11.07
2024-05-09T20:33:07.945Z,9.77
2024-05-09T20:35:36.735Z,7.55
2024-05-09T20:38:04.621Z,7.97
2024-05-09T20:40:36.124Z,10.63
2024-05-09T20:43:12.003Z,10.40
2024-05-09T20:45:40.195Z,7.47
2024-05-09T20:48:08.646Z,6.45
2024-05-09T20:50:40.200Z,5.50
2024-05-09T20:53:09.670Z,7.03
2024-05-09T20:55:37.050Z,7.22
2024-05-09T20:58:04.450Z,8.95
2024-05-09T21:00:39.693Z,6.05
2024-05-09T21:03:11.281Z,8.60
2024-05-09T21:05:39.393Z,6.05
2024-05-09T21:08:06.994Z,6.05
2024-05-09T21:10:34.813Z,6.25
2024-05-09T21:13:03.431Z,5.80
2024-05-09T21:15:31.493Z,5.33
2024-05-09T21:18:01.552Z,6.50
2024-05-09T21:20:31.676Z,6.20
2024-05-09T21:23:00.156Z,5.63
2024-05-09T21:25:27.493Z,6.13
2024-05-09T21:27:54.928Z,5.93
2024-05-09T21:30:32.429Z,6.10
2024-05-09T21:33:12.026Z,6.75
2024-05-09T21:35:40.851Z,5.43
2024-05-09T21:38:08.292Z,7.88
2024-05-09T21:40:36.776Z,5.90
2024-05-09T21:43:05.319Z,7.97
2024-05-09T21:45:32.824Z,6.25
2024-05-09T21:48:03.114Z,9.13
2024-05-09T21:50:39.371Z,10.07
2024-05-09T21:53:08.948Z,10.43
2024-05-09T21:55:36.168Z,9.95
2024-05-09T21:58:03.796Z,10.38
2024-05-09T22:00:36.795Z,10.35
2024-05-09T22:03:06.609Z,8.98
2024-05-09T22:05:37.650Z,8.70
2024-05-09T22:08:05.186Z,7.57
2024-05-09T22:10:35.028Z,7.40
2024-05-09T22:13:04.987Z,7.55
2024-05-09T22:15:35.960Z,8.02
2024-05-09T22:18:04.476Z,7.87
2024-05-09T22:20:37.161Z,6.32
2024-05-09T22:23:09.176Z,7.40
2024-05-09T22:25:36.729Z,8.13
2024-05-09T22:28:07.684Z,7.18
2024-05-09T22:30:38.493Z,8.40
2024-05-09T22:33:07.869Z,8.52
2024-05-09T22:35:35.225Z,9.68
2024-05-09T22:38:02.666Z,8.70
2024-05-09T22:40:42.272Z,9.48
2024-05-09T22:43:16.824Z,9.50
2024-05-09T22:45:44.383Z,9.25
2024-05-09T22:48:11.837Z,7.95
2024-05-09T22:50:39.091Z,7.30
2024-05-09T22:53:06.234Z,6.70
2024-05-09T22:55:36.142Z,8.03
2024-05-09T22:58:03.294Z,6.95
2024-05-09T23:00:32.367Z,8.23
2024-05-09T23:03:00.849Z,7.28
2024-05-09T23:05:28.542Z,10.60
2024-05-09T23:07:55.891Z,7.43
2024-05-09T23:10:31.042Z,9.77
2024-05-09T23:13:05.410Z,12.30
2024-05-09T23:15:32.845Z,10.00
2024-05-09T23:18:00.148Z,10.90
2024-05-09T23:20:36.082Z,9.77
2024-05-09T23:23:06.648Z,7.45
2024-05-09T23:25:34.192Z,6.80
2024-05-09T23:28:01.490Z,5.78
2024-05-09T23:30:37.586Z,6.30
2024-05-09T23:33:08.118Z,10.33
2024-05-09T23:35:35.631Z,6.88
2024-05-09T23:38:02.830Z,6.95
2024-05-09T23:40:38.319Z,5.57
2024-05-09T23:43:08.596Z,6.03
2024-05-09T23:45:38.982Z,7.10
2024-05-09T23:48:06.809Z,8.68
2024-05-09T23:50:37.278Z,6.60
2024-05-09T23:53:07.645Z,6.78
2024-05-09T23:55:36.063Z,8.95
2024-05-09T23:58:03.324Z,6.20
